sensor_id;sensor_type;location;lat;lon;timestamp;temperature;humidity
3942;DHT22;1985;48.592;8.850;2023-02-21T00:01:50;6.30;94.40
3942;DHT22;1985;48.592;8.850;2023-02-21T00:04:34;6.30;94.80
3942;DHT22;1985;48.592;8.850;2023-02-21T00:07:19;6.30;94.90
3942;DHT22;1985;48.592;8.850;2023-02-21T00:10:04;6.20;94.80
3942;DHT22;1985;48.592;8.850;2023-02-21T00:12:48;6.20;94.60
3942;DHT22;1985;48.592;8.850;2023-02-21T00:15:33;6.20;95.70
3942;DHT22;1985;48.592;8.850;2023-02-21T00:18:17;6.10;96.10
3942;DHT22;1985;48.592;8.850;2023-02-21T00:21:01;6.00;96.20
3942;DHT22;1985;48.592;8.850;2023-02-21T00:23:45;6.00;96.10
3942;DHT22;1985;48.592;8.850;2023-02-21T00:26:29;5.90;98.00
3942;DHT22;1985;48.592;8.850;2023-02-21T00:29:13;6.00;96.10
3942;DHT22;1985;48.592;8.850;2023-02-21T00:31:57;6.00;96.10
3942;DHT22;1985;48.592;8.850;2023-02-21T00:34:41;6.00;96.70
3942;DHT22;1985;48.592;8.850;2023-02-21T00:37:25;5.90;97.50
3942;DHT22;1985;48.592;8.850;2023-02-21T00:40:14;5.90;98.20
3942;DHT22;1985;48.592;8.850;2023-02-21T00:42:58;5.90;97.60
3942;DHT22;1985;48.592;8.850;2023-02-21T00:45:43;5.90;98.30
3942;DHT22;1985;48.592;8.850;2023-02-21T00:48:28;5.90;97.70
3942;DHT22;1985;48.592;8.850;2023-02-21T00:51:12;5.90;98.20
3942;DHT22;1985;48.592;8.850;2023-02-21T00:53:57;5.80;99.20
3942;DHT22;1985;48.592;8.850;2023-02-21T00:56:41;5.80;98.90
3942;DHT22;1985;48.592;8.850;2023-02-21T00:59:25;5.80;98.10
3942;DHT22;1985;48.592;8.850;2023-02-21T01:02:09;5.90;97.20
3942;DHT22;1985;48.592;8.850;2023-02-21T01:04:54;5.80;98.00
3942;DHT22;1985;48.592;8.850;2023-02-21T01:07:39;5.60;97.70
3942;DHT22;1985;48.592;8.850;2023-02-21T01:10:23;5.60;99.50
3942;DHT22;1985;48.592;8.850;2023-02-21T01:13:07;5.50;99.90
3942;DHT22;1985;48.592;8.850;2023-02-21T01:15:51;5.60;98.90
3942;DHT22;1985;48.592;8.850;2023-02-21T01:18:35;5.60;98.80
3942;DHT22;1985;48.592;8.850;2023-02-21T01:21:19;5.70;98.40
3942;DHT22;1985;48.592;8.850;2023-02-21T01:24:05;5.60;99.20
3942;DHT22;1985;48.592;8.850;2023-02-21T01:26:49;5.60;99.30
3942;DHT22;1985;48.592;8.850;2023-02-21T01:29:34;5.60;98.90
3942;DHT22;1985;48.592;8.850;2023-02-21T01:32:19;5.60;99.00
3942;DHT22;1985;48.592;8.850;2023-02-21T01:35:03;5.60;97.70
3942;DHT22;1985;48.592;8.850;2023-02-21T01:37:47;5.60;97.90
3942;DHT22;1985;48.592;8.850;2023-02-21T01:40:31;5.50;99.60
3942;DHT22;1985;48.592;8.850;2023-02-21T01:43:21;5.50;97.60
3942;DHT22;1985;48.592;8.850;2023-02-21T01:46:09;5.40;99.00
3942;DHT22;1985;48.592;8.850;2023-02-21T01:48:54;5.40;99.90
3942;DHT22;1985;48.592;8.850;2023-02-21T01:51:40;5.40;99.90
3942;DHT22;1985;48.592;8.850;2023-02-21T01:54:29;5.30;99.90
3942;DHT22;1985;48.592;8.850;2023-02-21T01:57:15;5.30;99.70
3942;DHT22;1985;48.592;8.850;2023-02-21T02:00:00;5.30;99.90
3942;DHT22;1985;48.592;8.850;2023-02-21T02:02:49;5.30;99.40
3942;DHT22;1985;48.592;8.850;2023-02-21T02:05:37;5.30;99.80
3942;DHT22;1985;48.592;8.850;2023-02-21T02:08:26;5.20;99.60
3942;DHT22;1985;48.592;8.850;2023-02-21T02:14:28;5.20;99.20
3942;DHT22;1985;48.592;8.850;2023-02-21T02:17:10;5.20;99.50
3942;DHT22;1985;48.592;8.850;2023-02-21T02:39:41;5.10;99.90
3942;DHT22;1985;48.592;8.850;2023-02-21T02:44:52;5.00;99.90
3942;DHT22;1985;48.592;8.850;2023-02-21T02:47:24;5.00;99.90
3942;DHT22;1985;48.592;8.850;2023-02-21T02:49:52;5.00;99.90
3942;DHT22;1985;48.592;8.850;2023-02-21T02:52:18;5.00;99.90
3942;DHT22;1985;48.592;8.850;2023-02-21T02:54:44;5.00;99.50
3942;DHT22;1985;48.592;8.850;2023-02-21T02:57:10;4.90;99.90
3942;DHT22;1985;48.592;8.850;2023-02-21T02:59:40;4.90;99.90
3942;DHT22;1985;48.592;8.850;2023-02-21T03:02:13;4.90;99.90
3942;DHT22;1985;48.592;8.850;2023-02-21T03:13:04;4.70;99.90
3942;DHT22;1985;48.592;8.850;2023-02-21T03:15:43;4.70;99.90
3942;DHT22;1985;48.592;8.850;2023-02-21T03:18:18;4.70;99.90
3942;DHT22;1985;48.592;8.850;2023-02-21T03:20:49;4.70;99.90
3942;DHT22;1985;48.592;8.850;2023-02-21T03:23:17;4.70;99.90
3942;DHT22;1985;48.592;8.850;2023-02-21T03:25:44;4.60;99.90
3942;DHT22;1985;48.592;8.850;2023-02-21T03:28:11;4.60;99.90
3942;DHT22;1985;48.592;8.850;2023-02-21T03:30:40;4.70;99.90
3942;DHT22;1985;48.592;8.850;2023-02-21T03:33:06;4.60;99.90
3942;DHT22;1985;48.592;8.850;2023-02-21T03:35:32;4.50;99.90
3942;DHT22;1985;48.592;8.850;2023-02-21T03:37:58;4.60;99.90
3942;DHT22;1985;48.592;8.850;2023-02-21T03:40:32;4.60;99.90
3942;DHT22;1985;48.592;8.850;2023-02-21T03:43:00;4.60;99.90
3942;DHT22;1985;48.592;8.850;2023-02-21T03:45:26;4.60;99.90
3942;DHT22;1985;48.592;8.850;2023-02-21T03:47:52;4.50;99.90
3942;DHT22;1985;48.592;8.850;2023-02-21T03:50:18;4.50;99.90
3942;DHT22;1985;48.592;8.850;2023-02-21T03:52:44;4.40;99.90
3942;DHT22;1985;48.592;8.850;2023-02-21T03:55:09;4.30;99.90
3942;DHT22;1985;48.592;8.850;2023-02-21T03:57:35;4.30;99.90
3942;DHT22;1985;48.592;8.850;2023-02-21T04:00:02;4.30;99.90
3942;DHT22;1985;48.592;8.850;2023-02-21T04:02:27;4.40;99.90
3942;DHT22;1985;48.592;8.850;2023-02-21T04:04:53;4.40;99.90
3942;DHT22;1985;48.592;8.850;2023-02-21T04:07:20;4.40;99.90
3942;DHT22;1985;48.592;8.850;2023-02-21T04:09:46;4.40;99.90
3942;DHT22;1985;48.592;8.850;2023-02-21T04:12:12;4.50;99.90
3942;DHT22;1985;48.592;8.850;2023-02-21T04:14:38;4.40;99.90
3942;DHT22;1985;48.592;8.850;2023-02-21T04:17:04;4.50;99.90
3942;DHT22;1985;48.592;8.850;2023-02-21T04:19:30;4.50;99.90
3942;DHT22;1985;48.592;8.850;2023-02-21T04:21:56;4.30;99.90
3942;DHT22;1985;48.592;8.850;2023-02-21T04:24:22;4.30;99.90
3942;DHT22;1985;48.592;8.850;2023-02-21T04:26:47;4.30;99.90
3942;DHT22;1985;48.592;8.850;2023-02-21T04:29:13;4.20;99.90
3942;DHT22;1985;48.592;8.850;2023-02-21T04:31:39;4.30;99.90
3942;DHT22;1985;48.592;8.850;2023-02-21T04:34:04;4.10;99.90
3942;DHT22;1985;48.592;8.850;2023-02-21T04:36:30;4.10;99.90
3942;DHT22;1985;48.592;8.850;2023-02-21T04:38:56;4.00;99.90
3942;DHT22;1985;48.592;8.850;2023-02-21T04:41:22;4.00;99.90
3942;DHT22;1985;48.592;8.850;2023-02-21T04:43:47;4.00;99.90
3942;DHT22;1985;48.592;8.850;2023-02-21T04:46:15;4.10;99.90
3942;DHT22;1985;48.592;8.850;2023-02-21T04:48:46;4.00;99.90
3942;DHT22;1985;48.592;8.850;2023-02-21T04:51:13;4.00;99.90
3942;DHT22;1985;48.592;8.850;2023-02-21T04:53:39;4.20;99.90
3942;DHT22;1985;48.592;8.850;2023-02-21T04:56:05;4.20;99.90
3942;DHT22;1985;48.592;8.850;2023-02-21T04:58:31;4.10;99.90
3942;DHT22;1985;48.592;8.850;2023-02-21T05:00:56;4.10;99.90
3942;DHT22;1985;48.592;8.850;2023-02-21T05:03:22;4.10;99.90
3942;DHT22;1985;48.592;8.850;2023-02-21T05:05:49;4.20;99.90
3942;DHT22;1985;48.592;8.850;2023-02-21T05:08:15;4.30;99.90
3942;DHT22;1985;48.592;8.850;2023-02-21T05:10:40;4.30;99.90
3942;DHT22;1985;48.592;8.850;2023-02-21T05:13:06;4.20;99.90
3942;DHT22;1985;48.592;8.850;2023-02-21T05:15:31;4.20;99.90
3942;DHT22;1985;48.592;8.850;2023-02-21T05:17:57;4.20;99.90
3942;DHT22;1985;48.592;8.850;2023-02-21T05:20:22;4.10;99.90
3942;DHT22;1985;48.592;8.850;2023-02-21T05:22:49;4.10;99.90
3942;DHT22;1985;48.592;8.850;2023-02-21T05:27:40;4.20;99.90
3942;DHT22;1985;48.592;8.850;2023-02-21T05:30:06;4.20;99.90
3942;DHT22;1985;48.592;8.850;2023-02-21T05:32:32;4.10;99.90
3942;DHT22;1985;48.592;8.850;2023-02-21T05:34:57;4.10;99.90
3942;DHT22;1985;48.592;8.850;2023-02-21T05:37:23;4.10;99.90
3942;DHT22;1985;48.592;8.850;2023-02-21T05:39:49;4.10;99.90
3942;DHT22;1985;48.592;8.850;2023-02-21T05:42:14;4.00;99.90
3942;DHT22;1985;48.592;8.850;2023-02-21T05:44:43;3.80;99.90
3942;DHT22;1985;48.592;8.850;2023-02-21T05:47:09;3.90;99.90
3942;DHT22;1985;48.592;8.850;2023-02-21T05:49:35;4.00;99.90
3942;DHT22;1985;48.592;8.850;2023-02-21T05:52:01;4.00;99.90
3942;DHT22;1985;48.592;8.850;2023-02-21T05:54:26;3.90;99.90
3942;DHT22;1985;48.592;8.850;2023-02-21T05:56:52;3.80;99.90
3942;DHT22;1985;48.592;8.850;2023-02-21T05:59:19;3.80;99.90
3942;DHT22;1985;48.592;8.850;2023-02-21T06:01:46;3.70;99.90
3942;DHT22;1985;48.592;8.850;2023-02-21T06:04:11;3.50;99.90
3942;DHT22;1985;48.592;8.850;2023-02-21T06:06:37;3.60;99.90
3942;DHT22;1985;48.592;8.850;2023-02-21T06:09:04;3.60;99.90
3942;DHT22;1985;48.592;8.850;2023-02-21T06:11:32;3.70;99.90
3942;DHT22;1985;48.592;8.850;2023-02-21T06:13:59;3.70;99.90
3942;DHT22;1985;48.592;8.850;2023-02-21T06:16:26;3.70;99.90
3942;DHT22;1985;48.592;8.850;2023-02-21T06:18:55;3.70;99.90
3942;DHT22;1985;48.592;8.850;2023-02-21T06:21:22;3.70;99.90
3942;DHT22;1985;48.592;8.850;2023-02-21T06:23:48;3.70;99.90
3942;DHT22;1985;48.592;8.850;2023-02-21T06:26:15;3.80;99.90
3942;DHT22;1985;48.592;8.850;2023-02-21T06:28:40;3.80;99.90
3942;DHT22;1985;48.592;8.850;2023-02-21T06:31:06;3.80;99.90
3942;DHT22;1985;48.592;8.850;2023-02-21T06:33:32;3.80;99.90
3942;DHT22;1985;48.592;8.850;2023-02-21T06:36:05;3.80;99.90
3942;DHT22;1985;48.592;8.850;2023-02-21T06:38:32;3.90;99.90
3942;DHT22;1985;48.592;8.850;2023-02-21T06:40:58;3.90;99.90
3942;DHT22;1985;48.592;8.850;2023-02-21T06:43:23;3.90;99.90
3942;DHT22;1985;48.592;8.850;2023-02-21T06:45:49;4.00;99.90
3942;DHT22;1985;48.592;8.850;2023-02-21T06:48:16;4.00;99.90
3942;DHT22;1985;48.592;8.850;2023-02-21T06:50:41;4.00;99.90
3942;DHT22;1985;48.592;8.850;2023-02-21T06:53:07;4.10;99.90
3942;DHT22;1985;48.592;8.850;2023-02-21T06:55:33;4.20;99.90
3942;DHT22;1985;48.592;8.850;2023-02-21T06:57:58;4.20;99.90
3942;DHT22;1985;48.592;8.850;2023-02-21T07:00:24;4.20;99.90
3942;DHT22;1985;48.592;8.850;2023-02-21T07:02:51;4.20;99.90
3942;DHT22;1985;48.592;8.850;2023-02-21T07:05:17;4.20;99.90
3942;DHT22;1985;48.592;8.850;2023-02-21T07:07:42;4.30;99.90
3942;DHT22;1985;48.592;8.850;2023-02-21T07:10:08;4.40;99.90
3942;DHT22;1985;48.592;8.850;2023-02-21T07:12:34;4.50;99.90
3942;DHT22;1985;48.592;8.850;2023-02-21T07:15:00;4.50;99.90
3942;DHT22;1985;48.592;8.850;2023-02-21T07:17:26;4.50;99.90
3942;DHT22;1985;48.592;8.850;2023-02-21T07:19:52;4.50;99.90
3942;DHT22;1985;48.592;8.850;2023-02-21T07:22:17;4.50;99.90
3942;DHT22;1985;48.592;8.850;2023-02-21T07:24:44;4.40;99.90
3942;DHT22;1985;48.592;8.850;2023-02-21T07:27:09;4.40;99.90
3942;DHT22;1985;48.592;8.850;2023-02-21T07:29:35;4.30;99.90
3942;DHT22;1985;48.592;8.850;2023-02-21T07:32:00;4.40;99.90
3942;DHT22;1985;48.592;8.850;2023-02-21T07:34:26;4.40;99.90
3942;DHT22;1985;48.592;8.850;2023-02-21T07:36:52;4.40;99.90
3942;DHT22;1985;48.592;8.850;2023-02-21T07:39:17;4.50;99.90
3942;DHT22;1985;48.592;8.850;2023-02-21T07:41:43;4.50;99.90
3942;DHT22;1985;48.592;8.850;2023-02-21T07:44:09;4.50;99.90
3942;DHT22;1985;48.592;8.850;2023-02-21T07:46:35;4.70;99.90
3942;DHT22;1985;48.592;8.850;2023-02-21T07:49:00;4.50;99.90
3942;DHT22;1985;48.592;8.850;2023-02-21T07:51:27;4.80;99.90
3942;DHT22;1985;48.592;8.850;2023-02-21T07:53:54;4.90;99.90
3942;DHT22;1985;48.592;8.850;2023-02-21T07:56:19;5.20;99.90
3942;DHT22;1985;48.592;8.850;2023-02-21T07:58:45;5.40;99.90
3942;DHT22;1985;48.592;8.850;2023-02-21T08:01:11;5.50;99.90
3942;DHT22;1985;48.592;8.850;2023-02-21T08:03:36;5.70;99.90
3942;DHT22;1985;48.592;8.850;2023-02-21T08:06:03;5.90;99.90
3942;DHT22;1985;48.592;8.850;2023-02-21T08:08:29;6.20;99.90
3942;DHT22;1985;48.592;8.850;2023-02-21T08:10:54;6.40;99.90
3942;DHT22;1985;48.592;8.850;2023-02-21T08:13:20;6.60;99.90
3942;DHT22;1985;48.592;8.850;2023-02-21T08:15:46;6.80;99.90
3942;DHT22;1985;48.592;8.850;2023-02-21T08:18:16;7.10;99.70
3942;DHT22;1985;48.592;8.850;2023-02-21T08:20:45;7.30;98.60
3942;DHT22;1985;48.592;8.850;2023-02-21T08:23:11;7.30;97.20
3942;DHT22;1985;48.592;8.850;2023-02-21T08:25:36;7.20;97.40
3942;DHT22;1985;48.592;8.850;2023-02-21T08:28:02;7.10;97.50
3942;DHT22;1985;48.592;8.850;2023-02-21T08:30:28;7.30;97.30
3942;DHT22;1985;48.592;8.850;2023-02-21T08:32:53;7.30;97.80
3942;DHT22;1985;48.592;8.850;2023-02-21T08:35:19;7.40;97.10
3942;DHT22;1985;48.592;8.850;2023-02-21T08:37:46;7.40;97.50
3942;DHT22;1985;48.592;8.850;2023-02-21T08:40:13;7.70;97.70
3942;DHT22;1985;48.592;8.850;2023-02-21T08:42:39;7.90;97.10
3942;DHT22;1985;48.592;8.850;2023-02-21T08:45:05;8.10;96.80
3942;DHT22;1985;48.592;8.850;2023-02-21T08:47:34;8.20;96.20
3942;DHT22;1985;48.592;8.850;2023-02-21T08:50:00;8.40;96.00
3942;DHT22;1985;48.592;8.850;2023-02-21T08:52:26;8.60;96.10
3942;DHT22;1985;48.592;8.850;2023-02-21T08:54:52;8.80;95.50
3942;DHT22;1985;48.592;8.850;2023-02-21T08:57:18;8.60;94.70
3942;DHT22;1985;48.592;8.850;2023-02-21T08:59:44;8.60;95.20
3942;DHT22;1985;48.592;8.850;2023-02-21T09:02:22;8.50;95.30
3942;DHT22;1985;48.592;8.850;2023-02-21T09:04:50;8.60;95.90
3942;DHT22;1985;48.592;8.850;2023-02-21T09:07:17;8.90;96.00
3942;DHT22;1985;48.592;8.850;2023-02-21T09:09:43;9.20;95.50
3942;DHT22;1985;48.592;8.850;2023-02-21T09:12:10;9.60;94.80
3942;DHT22;1985;48.592;8.850;2023-02-21T09:14:37;9.60;94.00
3942;DHT22;1985;48.592;8.850;2023-02-21T09:17:04;9.60;93.60
3942;DHT22;1985;48.592;8.850;2023-02-21T09:19:31;9.40;93.90
3942;DHT22;1985;48.592;8.850;2023-02-21T09:21:56;9.60;94.40
3942;DHT22;1985;48.592;8.850;2023-02-21T09:24:23;9.50;94.10
3942;DHT22;1985;48.592;8.850;2023-02-21T09:26:54;9.70;94.40
3942;DHT22;1985;48.592;8.850;2023-02-21T09:29:20;9.60;94.20
3942;DHT22;1985;48.592;8.850;2023-02-21T09:31:47;9.90;94.20
3942;DHT22;1985;48.592;8.850;2023-02-21T09:34:13;10.20;93.30
3942;DHT22;1985;48.592;8.850;2023-02-21T09:36:39;10.40;93.30
3942;DHT22;1985;48.592;8.850;2023-02-21T09:39:05;10.70;92.60
3942;DHT22;1985;48.592;8.850;2023-02-21T09:41:32;10.70;92.20
3942;DHT22;1985;48.592;8.850;2023-02-21T09:43:59;10.70;92.40
3942;DHT22;1985;48.592;8.850;2023-02-21T09:46:38;11.00;92.70
3942;DHT22;1985;48.592;8.850;2023-02-21T09:49:10;11.20;92.30
3942;DHT22;1985;48.592;8.850;2023-02-21T09:51:37;11.50;92.10
3942;DHT22;1985;48.592;8.850;2023-02-21T09:54:31;11.70;91.20
3942;DHT22;1985;48.592;8.850;2023-02-21T09:57:00;11.60;91.00
3942;DHT22;1985;48.592;8.850;2023-02-21T09:59:26;11.80;91.30
3942;DHT22;1985;48.592;8.850;2023-02-21T10:07:34;12.20;90.70
3942;DHT22;1985;48.592;8.850;2023-02-21T10:15:39;12.60;89.50
3942;DHT22;1985;48.592;8.850;2023-02-21T10:20:57;12.70;88.80
3942;DHT22;1985;48.592;8.850;2023-02-21T10:23:35;12.70;88.40
3942;DHT22;1985;48.592;8.850;2023-02-21T10:26:09;13.00;87.90
3942;DHT22;1985;48.592;8.850;2023-02-21T10:28:36;13.20;86.00
3942;DHT22;1985;48.592;8.850;2023-02-21T10:34:02;13.50;84.80
3942;DHT22;1985;48.592;8.850;2023-02-21T10:36:29;16.20;81.20
3942;DHT22;1985;48.592;8.850;2023-02-21T10:39:02;20.50;72.10
3942;DHT22;1985;48.592;8.850;2023-02-21T10:41:29;24.30;60.60
3942;DHT22;1985;48.592;8.850;2023-02-21T10:44:03;27.40;49.10
3942;DHT22;1985;48.592;8.850;2023-02-21T10:46:33;30.10;43.90
3942;DHT22;1985;48.592;8.850;2023-02-21T10:51:39;33.60;35.80
3942;DHT22;1985;48.592;8.850;2023-02-21T10:54:24;35.10;32.80
3942;DHT22;1985;48.592;8.850;2023-02-21T10:56:51;37.00;30.20
3942;DHT22;1985;48.592;8.850;2023-02-21T10:59:30;38.70;28.90
3942;DHT22;1985;48.592;8.850;2023-02-21T11:01:56;39.80;25.70
3942;DHT22;1985;48.592;8.850;2023-02-21T11:04:31;38.40;25.80
3942;DHT22;1985;48.592;8.850;2023-02-21T11:07:10;36.50;26.20
3942;DHT22;1985;48.592;8.850;2023-02-21T11:09:41;34.80;26.90
3942;DHT22;1985;48.592;8.850;2023-02-21T11:12:24;34.00;27.10
3942;DHT22;1985;48.592;8.850;2023-02-21T11:17:23;35.40;26.80
3942;DHT22;1985;48.592;8.850;2023-02-21T11:19:54;35.10;26.50
3942;DHT22;1985;48.592;8.850;2023-02-21T11:22:38;34.80;26.20
3942;DHT22;1985;48.592;8.850;2023-02-21T11:25:30;35.30;26.00
3942;DHT22;1985;48.592;8.850;2023-02-21T11:31:07;32.60;26.80
3942;DHT22;1985;48.592;8.850;2023-02-21T11:33:39;31.60;27.30
3942;DHT22;1985;48.592;8.850;2023-02-21T11:36:12;31.90;27.60
3942;DHT22;1985;48.592;8.850;2023-02-21T11:38:43;31.80;27.50
3942;DHT22;1985;48.592;8.850;2023-02-21T11:43:50;32.30;28.00
3942;DHT22;1985;48.592;8.850;2023-02-21T11:49:04;34.00;26.80
3942;DHT22;1985;48.592;8.850;2023-02-21T11:53:56;31.50;27.10
3942;DHT22;1985;48.592;8.850;2023-02-21T11:56:51;31.70;27.70
3942;DHT22;1985;48.592;8.850;2023-02-21T11:59:56;31.80;27.10
3942;DHT22;1985;48.592;8.850;2023-02-21T12:05:08;32.70;26.20
3942;DHT22;1985;48.592;8.850;2023-02-21T12:10:29;32.90;26.50
3942;DHT22;1985;48.592;8.850;2023-02-21T12:27:07;33.00;26.20
3942;DHT22;1985;48.592;8.850;2023-02-21T12:43:56;30.00;28.50
3942;DHT22;1985;48.592;8.850;2023-02-21T12:51:50;30.90;27.30
3942;DHT22;1985;48.592;8.850;2023-02-21T12:57:12;31.00;27.30
3942;DHT22;1985;48.592;8.850;2023-02-21T13:02:18;32.20;28.00
3942;DHT22;1985;48.592;8.850;2023-02-21T13:05:09;31.80;26.80
3942;DHT22;1985;48.592;8.850;2023-02-21T13:10:25;35.30;25.60
3942;DHT22;1985;48.592;8.850;2023-02-21T13:13:01;33.60;25.70
3942;DHT22;1985;48.592;8.850;2023-02-21T13:15:29;31.30;27.20
3942;DHT22;1985;48.592;8.850;2023-02-21T13:18:06;31.20;28.30
3942;DHT22;1985;48.592;8.850;2023-02-21T13:20:41;31.30;28.40
3942;DHT22;1985;48.592;8.850;2023-02-21T13:27:15;30.20;27.60
3942;DHT22;1985;48.592;8.850;2023-02-21T13:29:46;31.00;27.20
3942;DHT22;1985;48.592;8.850;2023-02-21T13:32:16;30.60;27.60
3942;DHT22;1985;48.592;8.850;2023-02-21T13:35:06;31.00;27.60
3942;DHT22;1985;48.592;8.850;2023-02-21T13:37:33;30.40;27.50
3942;DHT22;1985;48.592;8.850;2023-02-21T13:40:05;28.70;28.00
3942;DHT22;1985;48.592;8.850;2023-02-21T13:42:36;27.10;29.00
3942;DHT22;1985;48.592;8.850;2023-02-21T13:53:23;23.40;33.30
3942;DHT22;1985;48.592;8.850;2023-02-21T13:58:44;22.60;35.50
3942;DHT22;1985;48.592;8.850;2023-02-21T14:03:55;23.80;35.00
3942;DHT22;1985;48.592;8.850;2023-02-21T14:06:33;24.20;33.80
3942;DHT22;1985;48.592;8.850;2023-02-21T14:09:08;24.30;34.10
3942;DHT22;1985;48.592;8.850;2023-02-21T14:11:38;23.80;33.00
3942;DHT22;1985;48.592;8.850;2023-02-21T14:14:25;23.30;35.10
3942;DHT22;1985;48.592;8.850;2023-02-21T14:17:11;23.30;35.80
3942;DHT22;1985;48.592;8.850;2023-02-21T14:24:37;23.50;35.20
3942;DHT22;1985;48.592;8.850;2023-02-21T14:29:39;23.60;34.70
3942;DHT22;1985;48.592;8.850;2023-02-21T14:39:52;23.60;35.20
3942;DHT22;1985;48.592;8.850;2023-02-21T14:50:57;22.60;35.00
3942;DHT22;1985;48.592;8.850;2023-02-21T14:59:57;22.50;35.50
3942;DHT22;1985;48.592;8.850;2023-02-21T15:08:07;21.70;36.90
3942;DHT22;1985;48.592;8.850;2023-02-21T15:10:43;21.70;37.20
3942;DHT22;1985;48.592;8.850;2023-02-21T15:13:22;21.80;37.00
3942;DHT22;1985;48.592;8.850;2023-02-21T15:15:54;21.70;36.60
3942;DHT22;1985;48.592;8.850;2023-02-21T15:21:03;21.10;37.50
3942;DHT22;1985;48.592;8.850;2023-02-21T15:23:29;20.90;38.10
3942;DHT22;1985;48.592;8.850;2023-02-21T15:25:58;20.80;39.50
3942;DHT22;1985;48.592;8.850;2023-02-21T15:28:29;20.60;39.80
3942;DHT22;1985;48.592;8.850;2023-02-21T15:33:20;20.00;39.20
3942;DHT22;1985;48.592;8.850;2023-02-21T15:35:52;19.70;39.90
3942;DHT22;1985;48.592;8.850;2023-02-21T15:38:27;19.60;40.70
3942;DHT22;1985;48.592;8.850;2023-02-21T15:40:58;19.50;41.40
3942;DHT22;1985;48.592;8.850;2023-02-21T15:43:58;19.40;41.90
3942;DHT22;1985;48.592;8.850;2023-02-21T15:46:47;19.20;41.80
3942;DHT22;1985;48.592;8.850;2023-02-21T15:49:19;19.00;42.50
3942;DHT22;1985;48.592;8.850;2023-02-21T15:51:45;18.80;42.30
3942;DHT22;1985;48.592;8.850;2023-02-21T15:56:43;18.50;43.40
3942;DHT22;1985;48.592;8.850;2023-02-21T15:59:18;18.30;43.30
3942;DHT22;1985;48.592;8.850;2023-02-21T16:01:44;18.10;44.10
3942;DHT22;1985;48.592;8.850;2023-02-21T16:04:36;17.90;45.00
3942;DHT22;1985;48.592;8.850;2023-02-21T16:07:05;17.70;45.20
3942;DHT22;1985;48.592;8.850;2023-02-21T16:09:33;17.50;45.50
3942;DHT22;1985;48.592;8.850;2023-02-21T16:19:57;16.90;48.20
3942;DHT22;1985;48.592;8.850;2023-02-21T16:22:35;16.70;48.60
3942;DHT22;1985;48.592;8.850;2023-02-21T16:27:40;16.40;50.10
3942;DHT22;1985;48.592;8.850;2023-02-21T16:30:10;16.30;50.80
3942;DHT22;1985;48.592;8.850;2023-02-21T16:32:44;16.20;51.00
3942;DHT22;1985;48.592;8.850;2023-02-21T16:35:16;16.00;51.70
3942;DHT22;1985;48.592;8.850;2023-02-21T16:37:49;15.90;52.80
3942;DHT22;1985;48.592;8.850;2023-02-21T16:40:18;15.80;53.30
3942;DHT22;1985;48.592;8.850;2023-02-21T16:42:47;15.70;53.80
3942;DHT22;1985;48.592;8.850;2023-02-21T16:45:13;15.60;54.40
3942;DHT22;1985;48.592;8.850;2023-02-21T16:47:38;15.40;54.80
3942;DHT22;1985;48.592;8.850;2023-02-21T16:50:04;15.30;55.40
3942;DHT22;1985;48.592;8.850;2023-02-21T16:52:31;15.20;55.80
3942;DHT22;1985;48.592;8.850;2023-02-21T16:54:56;15.00;56.00
3942;DHT22;1985;48.592;8.850;2023-02-21T16:57:24;14.80;56.40
3942;DHT22;1985;48.592;8.850;2023-02-21T16:59:50;14.60;56.70
3942;DHT22;1985;48.592;8.850;2023-02-21T17:02:15;14.50;57.10
3942;DHT22;1985;48.592;8.850;2023-02-21T17:04:41;14.40;57.60
3942;DHT22;1985;48.592;8.850;2023-02-21T17:07:06;14.30;57.80
3942;DHT22;1985;48.592;8.850;2023-02-21T17:09:35;14.10;58.10
3942;DHT22;1985;48.592;8.850;2023-02-21T17:12:05;13.90;58.60
3942;DHT22;1985;48.592;8.850;2023-02-21T17:14:31;13.80;59.10
3942;DHT22;1985;48.592;8.850;2023-02-21T17:16:58;13.70;59.30
3942;DHT22;1985;48.592;8.850;2023-02-21T17:19:23;13.60;59.60
3942;DHT22;1985;48.592;8.850;2023-02-21T17:21:50;13.50;60.20
3942;DHT22;1985;48.592;8.850;2023-02-21T17:24:16;13.30;60.90
3942;DHT22;1985;48.592;8.850;2023-02-21T17:26:41;13.20;61.00
3942;DHT22;1985;48.592;8.850;2023-02-21T17:29:08;13.10;61.00
3942;DHT22;1985;48.592;8.850;2023-02-21T17:31:34;13.10;60.80
3942;DHT22;1985;48.592;8.850;2023-02-21T17:34:00;13.00;60.60
3942;DHT22;1985;48.592;8.850;2023-02-21T17:36:27;12.90;60.30
3942;DHT22;1985;48.592;8.850;2023-02-21T17:38:53;12.90;60.50
3942;DHT22;1985;48.592;8.850;2023-02-21T17:41:20;12.90;60.70
3942;DHT22;1985;48.592;8.850;2023-02-21T17:43:46;12.90;60.80
3942;DHT22;1985;48.592;8.850;2023-02-21T17:46:13;12.80;61.80
3942;DHT22;1985;48.592;8.850;2023-02-21T17:48:42;12.70;62.50
3942;DHT22;1985;48.592;8.850;2023-02-21T17:51:13;12.50;63.50
3942;DHT22;1985;48.592;8.850;2023-02-21T17:53:41;12.40;64.50
3942;DHT22;1985;48.592;8.850;2023-02-21T17:56:06;12.30;65.30
3942;DHT22;1985;48.592;8.850;2023-02-21T17:58:32;12.30;65.80
3942;DHT22;1985;48.592;8.850;2023-02-21T18:00:58;12.40;66.60
3942;DHT22;1985;48.592;8.850;2023-02-21T18:03:24;12.40;67.40
3942;DHT22;1985;48.592;8.850;2023-02-21T18:05:50;12.40;67.70
3942;DHT22;1985;48.592;8.850;2023-02-21T18:08:17;12.30;68.10
3942;DHT22;1985;48.592;8.850;2023-02-21T18:10:43;12.30;68.60
3942;DHT22;1985;48.592;8.850;2023-02-21T18:13:18;12.30;68.90
3942;DHT22;1985;48.592;8.850;2023-02-21T18:15:44;12.20;69.20
3942;DHT22;1985;48.592;8.850;2023-02-21T18:18:10;12.20;69.70
3942;DHT22;1985;48.592;8.850;2023-02-21T18:20:35;12.10;70.20
3942;DHT22;1985;48.592;8.850;2023-02-21T18:23:01;12.10;71.00
3942;DHT22;1985;48.592;8.850;2023-02-21T18:25:28;12.00;71.40
3942;DHT22;1985;48.592;8.850;2023-02-21T18:27:53;11.90;71.80
3942;DHT22;1985;48.592;8.850;2023-02-21T18:30:19;11.90;72.30
3942;DHT22;1985;48.592;8.850;2023-02-21T18:32:46;11.80;72.70
3942;DHT22;1985;48.592;8.850;2023-02-21T18:35:14;11.80;73.00
3942;DHT22;1985;48.592;8.850;2023-02-21T18:37:40;11.80;73.30
3942;DHT22;1985;48.592;8.850;2023-02-21T18:40:06;11.70;73.80
3942;DHT22;1985;48.592;8.850;2023-02-21T18:42:33;11.70;74.50
3942;DHT22;1985;48.592;8.850;2023-02-21T18:44:59;11.60;74.50
3942;DHT22;1985;48.592;8.850;2023-02-21T18:47:25;11.50;75.00
3942;DHT22;1985;48.592;8.850;2023-02-21T18:49:52;11.50;75.30
3942;DHT22;1985;48.592;8.850;2023-02-21T18:52:17;11.50;75.70
3942;DHT22;1985;48.592;8.850;2023-02-21T18:54:48;11.40;76.00
3942;DHT22;1985;48.592;8.850;2023-02-21T18:57:18;11.40;76.60
3942;DHT22;1985;48.592;8.850;2023-02-21T18:59:44;11.30;76.90
3942;DHT22;1985;48.592;8.850;2023-02-21T19:02:12;11.30;77.20
3942;DHT22;1985;48.592;8.850;2023-02-21T19:04:39;11.30;77.20
3942;DHT22;1985;48.592;8.850;2023-02-21T19:07:09;11.30;77.50
3942;DHT22;1985;48.592;8.850;2023-02-21T19:09:35;11.20;77.70
3942;DHT22;1985;48.592;8.850;2023-02-21T19:12:02;11.20;77.90
3942;DHT22;1985;48.592;8.850;2023-02-21T19:14:29;11.20;78.20
3942;DHT22;1985;48.592;8.850;2023-02-21T19:16:55;11.20;78.30
3942;DHT22;1985;48.592;8.850;2023-02-21T19:19:20;11.20;78.70
3942;DHT22;1985;48.592;8.850;2023-02-21T19:21:47;11.10;79.10
3942;DHT22;1985;48.592;8.850;2023-02-21T19:24:13;11.10;79.60
3942;DHT22;1985;48.592;8.850;2023-02-21T19:26:38;11.10;79.80
3942;DHT22;1985;48.592;8.850;2023-02-21T19:29:06;11.00;80.30
3942;DHT22;1985;48.592;8.850;2023-02-21T19:31:33;10.90;80.40
3942;DHT22;1985;48.592;8.850;2023-02-21T19:33:58;10.90;80.70
3942;DHT22;1985;48.592;8.850;2023-02-21T19:36:24;10.90;80.60
3942;DHT22;1985;48.592;8.850;2023-02-21T19:38:50;10.90;80.70
3942;DHT22;1985;48.592;8.850;2023-02-21T19:41:16;10.90;80.90